Time;durP1;ratioP1;P1;durP2;ratioP2;P2;SDS_P1;SDS_P2;PMS_P1;PMS_P2;Temp;Humidity;BMP_temperature;BMP_pressure;BME280_temperature;BME280_humidity;BME280_pressure;Samples;Min_cycle;Max_cycle;Signal;HPM_P1;HPM_P2
2021/05/19 05:03:23;;;;;;;20.82;18.67;;;;;;;14.15;100.00;98648.12;1832015;77;22206;-73
2021/05/19 05:05:53;;;;;;;22.27;19.98;;;;;;;14.12;100.00;98649.23;1781170;80;20979;-71
2021/05/19 05:08:22;;;;;;;23.80;21.37;;;;;;;14.16;100.00;98662.38;1789483;79;21093;-72
2021/05/19 05:10:50;;;;;;;26.82;22.42;;;;;;;14.20;100.00;98661.62;1795275;79;21078;-69
2021/05/19 05:13:17;;;;;;;43.48;30.80;;;;;;;14.24;100.00;98672.15;1791211;79;20935;-69
2021/05/19 05:15:44;;;;;;;21.02;18.90;;;;;;;14.29;100.00;98676.48;1790939;77;20998;-80
2021/05/19 05:18:12;;;;;;;34.20;25.05;;;;;;;14.32;100.00;98689.28;1792373;77;21023;-67
2021/05/19 05:20:39;;;;;;;28.32;21.37;;;;;;;14.29;100.00;98694.32;1789803;77;21495;-72
2021/05/19 05:23:08;;;;;;;63.28;26.75;;;;;;;14.29;100.00;98696.94;1787336;79;21007;-74
2021/05/19 05:25:36;;;;;;;16.02;7.45;;;;;;;14.26;100.00;98701.16;1793471;79;21504;-69
2021/05/19 05:28:08;;;;;;;4.95;3.50;;;;;;;14.14;100.00;98693.11;1793614;79;20979;-81
2021/05/19 05:30:37;;;;;;;3.87;3.37;;;;;;;13.98;100.00;98704.18;1790305;79;20995;-82
2021/05/19 05:33:06;;;;;;;4.72;3.40;;;;;;;13.79;100.00;98697.64;1794762;79;20980;-76
2021/05/19 05:35:37;;;;;;;3.42;3.15;;;;;;;13.66;100.00;98695.78;1790524;79;20971;-76
2021/05/19 05:38:05;;;;;;;3.22;3.00;;;;;;;13.55;100.00;98687.62;1789901;79;20998;-73
2021/05/19 05:40:32;;;;;;;2.98;2.67;;;;;;;13.46;100.00;98677.97;1795816;79;21006;-74
2021/05/19 05:42:59;;;;;;;3.40;3.20;;;;;;;13.44;100.00;98675.98;1791814;79;21054;-71
2021/05/19 05:45:27;;;;;;;3.85;3.27;;;;;;;13.43;100.00;98674.80;1789390;79;21126;-70
2021/05/19 05:47:55;;;;;;;6.80;3.87;;;;;;;13.45;100.00;98678.11;1794865;79;21030;-77
2021/05/19 05:50:22;;;;;;;4.10;3.80;;;;;;;13.50;100.00;98670.69;1795593;79;20935;-69
2021/05/19 05:52:50;;;;;;;4.10;3.58;;;;;;;13.56;100.00;98660.50;1803330;79;21461;-76
2021/05/19 05:55:17;;;;;;;4.47;4.17;;;;;;;13.67;100.00;98663.43;1789920;79;21026;-73
2021/05/19 05:57:44;;;;;;;4.72;4.20;;;;;;;13.79;100.00;98647.94;1787166;79;21420;-78
2021/05/19 06:00:13;;;;;;;5.17;4.33;;;;;;;13.95;100.00;98641.65;1792265;79;22332;-72
2021/05/19 06:02:40;;;;;;;4.40;4.10;;;;;;;14.11;100.00;98633.67;1792351;79;21016;-69
2021/05/19 06:05:10;;;;;;;4.45;4.05;;;;;;;14.26;100.00;98621.78;1791891;79;20987;-79
2021/05/19 06:07:37;;;;;;;4.78;4.05;;;;;;;14.39;100.00;98625.39;1798839;79;21578;-79
2021/05/19 06:10:06;;;;;;;4.62;4.30;;;;;;;14.49;100.00;98628.31;1788651;79;21037;-74
2021/05/19 06:12:33;;;;;;;5.17;4.25;;;;;;;14.62;100.00;98634.05;1801815;79;20999;-72
2021/05/19 06:15:00;;;;;;;4.40;4.00;;;;;;;14.77;100.00;98637.50;1785829;79;20971;-79
2021/05/19 06:17:28;;;;;;;4.40;4.10;;;;;;;14.96;100.00;98649.98;1784924;79;20948;-77
2021/05/19 06:19:55;;;;;;;7.10;6.40;;;;;;;15.21;100.00;98658.09;1804783;79;21395;-74
2021/05/19 06:22:23;;;;;;;9.18;7.35;;;;;;;15.52;100.00;98683.48;1799680;77;21085;-76
2021/05/19 06:24:50;;;;;;;5.97;5.40;;;;;;;15.79;100.00;98696.53;1780782;79;20979;-79
2021/05/19 06:27:19;;;;;;;8.53;7.72;;;;;;;15.93;100.00;98696.00;1784047;79;20960;-77
2021/05/19 06:29:46;;;;;;;6.33;5.72;;;;;;;15.98;100.00;98702.94;1783405;79;21059;-74
2021/05/19 06:32:13;;;;;;;8.83;7.97;;;;;;;16.04;100.00;98701.47;1787594;79;20995;-72
2021/05/19 06:34:40;;;;;;;11.00;9.88;;;;;;;16.06;100.00;98706.08;1806459;78;21860;-73
2021/05/19 06:37:07;;;;;;;12.93;11.55;;;;;;;15.96;98.95;98711.45;1802690;78;21075;-77
2021/05/19 06:39:36;;;;;;;10.18;8.70;;;;;;;15.71;97.65;98710.89;1795060;78;20896;-71
2021/05/19 06:42:06;;;;;;;11.60;10.20;;;;;;;15.52;98.33;98718.41;1798459;77;21525;-75
2021/05/19 06:44:33;;;;;;;7.80;7.03;;;;;;;15.46;99.27;98709.83;1784593;78;20988;-80
2021/05/19 06:47:01;;;;;;;7.42;6.55;;;;;;;15.54;100.00;98704.66;1786981;79;21485;-71
2021/05/19 06:49:28;;;;;;;7.37;6.60;;;;;;;15.77;100.00;98706.84;1788808;79;21560;-77
2021/05/19 06:51:57;;;;;;;6.75;6.22;;;;;;;16.06;100.00;98706.57;1808539;79;21501;-73
2021/05/19 06:54:24;;;;;;;6.67;6.17;;;;;;;16.37;99.56;98713.04;1785666;79;21081;-80
2021/05/19 06:56:53;;;;;;;6.87;5.95;;;;;;;16.66;98.45;98704.36;1787660;79;21042;-75
2021/05/19 06:59:21;;;;;;;5.87;5.47;;;;;;;17.01;98.02;98702.52;1790812;79;21062;-77
2021/05/19 07:01:52;;;;;;;6.83;6.17;;;;;;;17.34;95.79;98708.20;1794335;78;20967;-80
2021/05/19 07:04:20;;;;;;;8.13;6.00;;;;;;;17.80;96.51;98711.24;1793511;78;21475;-75
2021/05/19 07:06:49;;;;;;;6.15;5.62;;;;;;;18.40;96.25;98707.38;1770605;79;21628;-79
2021/05/19 07:09:19;;;;;;;5.67;4.28;;;;;;;19.01;91.38;98698.81;1778565;79;21026;-78
2021/05/19 07:11:46;;;;;;;4.45;4.05;;;;;;;19.44;84.33;98693.95;1768891;79;20999;-82
2021/05/19 07:14:17;;;;;;;4.53;4.12;;;;;;;19.86;80.49;98696.14;1769997;79;21003;-80
2021/05/19 07:16:51;;;;;;;4.40;4.00;;;;;;;20.42;79.89;98692.16;1779967;79;20979;-69
2021/05/19 07:19:16;;;;;;;4.00;3.60;;;;;;;21.08;76.09;98687.74;1780209;79;20912;-73
2021/05/19 07:21:43;;;;;;;3.95;3.10;;;;;;;21.61;73.68;98693.11;1786657;78;21051;-74
2021/05/19 07:24:13;;;;;;;3.85;3.55;;;;;;;21.97;66.42;98689.58;1790715;79;21076;-80
2021/05/19 07:26:42;;;;;;;3.33;2.98;;;;;;;21.99;69.31;98695.51;1780516;79;20944;-73
2021/05/19 07:29:10;;;;;;;3.33;2.98;;;;;;;22.15;69.35;98696.56;1777953;79;21085;-75
2021/05/19 07:31:40;;;;;;;3.33;3.02;;;;;;;22.52;67.27;98692.73;1779511;79;20992;-76
2021/05/19 07:34:09;;;;;;;3.05;2.85;;;;;;;22.97;65.19;98702.48;1776423;79;21592;-69
2021/05/19 07:36:36;;;;;;;3.33;3.08;;;;;;;23.27;62.74;98709.12;1778097;79;21100;-75
2021/05/19 07:39:07;;;;;;;3.30;3.00;;;;;;;23.20;61.65;98705.63;1769791;79;20996;-77
2021/05/19 07:41:35;;;;;;;5.95;3.15;;;;;;;23.07;61.21;98712.74;1782470;79;20924;-76
2021/05/19 07:44:04;;;;;;;3.47;3.17;;;;;;;22.95;60.89;98701.35;1777848;79;21034;-75
2021/05/19 07:46:33;;;;;;;3.20;3.00;;;;;;;22.80;61.22;98710.45;1774200;79;21019;-78
2021/05/19 07:49:04;;;;;;;7.20;3.85;;;;;;;22.72;60.24;98713.27;1774679;79;21991;-72
2021/05/19 07:51:32;;;;;;;4.22;3.50;;;;;;;22.50;60.91;98718.63;1769831;79;21066;-74
2021/05/19 07:53:59;;;;;;;3.98;3.60;;;;;;;22.23;62.08;98723.45;1769025;81;20956;-71
2021/05/19 07:56:41;;;;;;;6.25;3.40;;;;;;;21.93;63.42;98723.59;1768707;81;21609;-76
2021/05/19 07:59:14;;;;;;;4.10;3.77;;;;;;;21.67;64.35;98727.80;1778084;79;20983;-79
2021/05/19 08:04:08;;;;;;;4.55;3.00;;;;;;;21.28;65.45;98717.11;1776809;79;20960;-78
2021/05/19 08:06:36;;;;;;;5.85;4.75;;;;;;;21.42;67.07;98727.35;1787121;79;21434;-73
2021/05/19 08:09:05;;;;;;;3.92;3.42;;;;;;;21.90;64.70;98720.50;1777615;79;20920;-73
2021/05/19 08:11:33;;;;;;;3.10;2.90;;;;;;;22.30;61.78;98719.02;1786928;78;20948;-70
2021/05/19 08:14:01;;;;;;;3.22;3.02;;;;;;;22.66;60.28;98711.39;1798127;79;21085;-70
2021/05/19 08:16:29;;;;;;;3.22;2.90;;;;;;;23.06;58.89;98724.38;1783056;79;21605;-78
2021/05/19 08:18:57;;;;;;;6.25;4.00;;;;;;;23.36;58.47;98727.03;1769333;79;21051;-73
2021/05/19 08:21:25;;;;;;;3.98;3.20;;;;;;;23.35;58.04;98732.03;1776028;79;21597;-77
2021/05/19 08:23:54;;;;;;;4.83;3.40;;;;;;;23.11;58.49;98736.55;1778252;79;20979;-78
2021/05/19 08:26:21;;;;;;;2.90;2.72;;;;;;;22.78;58.07;98738.55;1781434;79;21078;-76
2021/05/19 08:28:49;;;;;;;3.05;2.83;;;;;;;22.59;57.06;98740.02;1784750;79;20987;-81
2021/05/19 08:31:19;;;;;;;4.85;2.77;;;;;;;22.77;57.00;98753.31;1784846;79;20991;-71
2021/05/19 08:33:46;;;;;;;3.50;3.20;;;;;;;23.06;56.68;98742.45;1741047;82;20999;-74
2021/05/19 08:36:13;;;;;;;4.20;3.10;;;;;;;23.31;55.83;98737.44;1771878;79;20912;-79
2021/05/19 08:38:44;;;;;;;3.40;2.83;;;;;;;23.41;55.16;98734.41;1784056;79;21472;-68
2021/05/19 08:41:11;;;;;;;3.42;3.12;;;;;;;23.59;55.59;98738.69;1790896;79;21003;-79
2021/05/19 08:43:38;;;;;;;3.17;2.87;;;;;;;23.86;54.67;98735.56;1791459;79;20982;-72
2021/05/19 08:46:10;;;;;;;3.27;3.00;;;;;;;24.01;52.76;98741.48;1780088;79;20888;-69
2021/05/19 08:48:40;;;;;;;4.90;3.58;;;;;;;24.06;52.83;98744.87;1772118;79;21502;-80
2021/05/19 08:51:07;;;;;;;3.70;3.40;;;;;;;23.99;52.82;98742.73;1772850;79;21067;-77
2021/05/19 08:53:34;;;;;;;6.20;3.30;;;;;;;23.94;54.14;98739.36;1769728;79;20990;-73
2021/05/19 08:56:10;;;;;;;5.97;3.62;;;;;;;23.88;53.51;98742.31;1784405;79;21023;-84
2021/05/19 08:58:37;;;;;;;;;;;;;;;23.77;53.08;98735.44;1764913;79;20960;-74
2021/05/19 09:01:04;;;;;;;3.70;3.05;;;;;;;23.63;52.79;98734.59;1796662;79;20203;-79
2021/05/19 09:03:35;;;;;;;4.75;3.33;;;;;;;23.46;52.78;98741.27;1788421;79;21113;-68
2021/05/19 09:06:08;;;;;;;4.05;3.65;;;;;;;23.18;54.27;98746.20;1781697;79;21035;-70
2021/05/19 09:08:39;;;;;;;9.50;3.25;;;;;;;23.01;53.83;98747.53;1773965;79;20976;-76
2021/05/19 09:11:13;;;;;;;3.98;3.12;;;;;;;22.85;55.38;98749.17;1780879;79;21031;-72
2021/05/19 09:13:42;;;;;;;3.83;3.42;;;;;;;22.79;55.63;98749.98;1774362;79;21102;-74
2021/05/19 09:16:10;;;;;;;3.80;3.50;;;;;;;22.70;55.93;98749.79;1770625;79;21076;-73
2021/05/19 09:18:51;;;;;;;8.40;3.42;;;;;;;22.58;57.32;98748.99;1774796;79;20987;-66
2021/05/19 09:21:40;;;;;;;5.42;3.20;;;;;;;22.55;57.50;98746.73;1786737;79;21110;-70
2021/05/19 09:24:20;;;;;;;5.08;3.62;;;;;;;22.54;56.74;98741.61;1781058;79;21458;-74
2021/05/19 09:26:58;;;;;;;7.58;4.72;;;;;;;22.47;56.34;98743.40;1779250;79;20983;-75
2021/05/19 09:29:35;;;;;;;7.62;4.42;;;;;;;22.42;55.48;98745.80;1787599;79;21104;-81
2021/05/19 09:32:09;;;;;;;10.28;4.58;;;;;;;22.29;55.80;98741.25;1784819;79;20900;-76
2021/05/19 09:34:39;;;;;;;4.17;3.83;;;;;;;22.32;54.58;98747.50;1779897;79;20960;-73
2021/05/19 09:37:27;;;;;;;3.75;3.33;;;;;;;22.30;54.57;98746.86;1778156;79;20960;-67
2021/05/19 09:40:08;;;;;;;5.58;5.08;;;;;;;22.38;55.68;98748.56;1764860;79;21047;-70
2021/05/19 09:42:48;;;;;;;3.77;3.45;;;;;;;22.51;54.20;98742.00;1779266;79;21061;-73
2021/05/19 09:45:26;;;;;;;3.08;2.80;;;;;;;22.54;54.65;98761.00;1770706;79;20877;-70
2021/05/19 09:47:54;;;;;;;3.85;3.08;;;;;;;22.56;54.59;98761.63;1772712;79;21164;-75
2021/05/19 09:50:42;;;;;;;4.40;3.50;;;;;;;22.57;54.07;98759.80;1780182;79;20924;-71
2021/05/19 09:53:15;;;;;;;3.85;3.00;;;;;;;22.65;54.98;98757.51;1782049;79;20924;-76
2021/05/19 09:55:59;;;;;;;5.00;4.03;;;;;;;22.70;52.29;98759.89;1770557;79;21068;-76
2021/05/19 09:58:40;;;;;;;4.22;2.80;;;;;;;22.61;51.69;98753.92;1684944;82;21399;-76
2021/05/19 10:01:07;;;;;;;5.47;3.12;;;;;;;22.39;51.89;98756.33;1778833;79;21621;-74
2021/05/19 10:03:37;;;;;;;2.95;2.70;;;;;;;22.28;52.22;98760.82;1781398;79;22161;-78
2021/05/19 10:06:12;;;;;;;3.17;2.87;;;;;;;22.21;52.06;98754.64;1769565;78;21046;-80
2021/05/19 10:08:34;;;;;;;4.33;3.20;;;;;;;22.09;52.93;98754.83;1774640;78;21072;-76
2021/05/19 10:11:03;;;;;;;3.20;3.00;;;;;;;22.01;53.73;98756.25;1777686;79;21007;-76
2021/05/19 10:13:31;;;;;;;4.58;3.47;;;;;;;22.03;53.60;98754.27;1775549;79;20910;-71
2021/05/19 10:16:04;;;;;;;3.00;2.77;;;;;;;22.04;54.08;98751.42;1769420;81;20973;-70
2021/05/19 10:18:35;;;;;;;3.35;3.05;;;;;;;22.08;53.50;98754.02;1769050;81;20977;-73
2021/05/19 10:21:02;;;;;;;4.30;3.08;;;;;;;22.16;52.12;98760.52;1769228;81;21074;-75
2021/05/19 10:23:41;;;;;;;3.20;2.87;;;;;;;22.20;53.13;98753.81;1769221;80;21494;-72
2021/05/19 10:26:09;;;;;;;4.00;3.20;;;;;;;22.23;52.71;98753.94;1767694;81;21409;-76
2021/05/19 10:28:46;;;;;;;3.08;2.80;;;;;;;22.26;53.54;98759.69;1769252;80;21001;-75
2021/05/19 10:31:32;;;;;;;4.53;2.67;;;;;;;22.32;52.99;98760.75;1780748;79;21626;-72
2021/05/19 10:34:01;;;;;;;2.42;2.22;;;;;;;22.35;52.93;98755.06;1772875;79;21536;-75
2021/05/19 10:36:37;;;;;;;2.95;2.08;;;;;;;22.45;52.40;98754.20;1798995;79;21519;-77
2021/05/19 10:39:16;;;;;;;3.80;2.90;;;;;;;22.60;50.23;98760.23;1789241;79;20864;-78
2021/05/19 10:41:49;;;;;;;2.58;2.47;;;;;;;22.68;50.20;98749.98;1792216;79;20945;-76
2021/05/19 10:44:22;;;;;;;4.72;2.70;;;;;;;22.69;49.52;98756.93;1790571;79;20943;-74
2021/05/19 10:50:02;;;;;;;3.30;3.00;;;;;;;22.60;53.01;98762.07;1788906;79;20999;-77
2021/05/19 10:58:01;;;;;;;;;;;;;;;22.44;52.42;98771.63;1774267;79;21470;-73
2021/05/19 11:00:29;;;;;;;2.90;2.62;;;;;;;22.40;51.42;98771.70;1798952;79;21066;-74
2021/05/19 11:03:05;;;;;;;8.18;4.33;;;;;;;22.35;51.13;98768.33;1789309;79;20900;-76
2021/05/19 11:05:57;;;;;;;5.37;3.22;;;;;;;22.36;51.47;98767.82;1782600;78;20991;-74
2021/05/19 11:08:29;;;;;;;2.60;2.40;;;;;;;22.37;53.10;98770.28;1780508;79;20955;-76
2021/05/19 11:11:31;;;;;;;3.12;2.83;;;;;;;22.40;52.07;98780.48;1781046;79;20995;-71
2021/05/19 11:14:14;;;;;;;4.42;2.92;;;;;;;22.32;53.03;98785.95;1779218;79;21003;-69
2021/05/19 11:17:05;;;;;;;2.47;2.37;;;;;;;22.16;56.32;98791.51;1780993;79;21473;-73
2021/05/19 11:19:32;;;;;;;4.60;2.67;;;;;;;22.02;56.72;98787.91;1778570;79;21019;-73
2021/05/19 11:22:06;;;;;;;13.40;3.60;;;;;;;21.92;58.36;98790.86;1775838;79;21047;-73
2021/05/19 11:24:54;;;;;;;5.50;3.20;;;;;;;21.85;58.96;98792.62;1778305;79;21392;-74
2021/05/19 11:27:27;;;;;;;3.37;2.77;;;;;;;21.67;59.99;98788.73;1786580;79;20978;-72
2021/05/19 11:29:55;;;;;;;6.30;3.33;;;;;;;21.54;60.75;98785.46;1783883;79;20944;-75
2021/05/19 11:32:25;;;;;;;2.98;2.70;;;;;;;21.47;61.17;98788.03;1777632;79;21016;-74
2021/05/19 11:34:54;;;;;;;2.92;2.62;;;;;;;21.34;61.19;98789.19;1769485;79;21025;-71
2021/05/19 11:37:21;;;;;;;3.75;2.90;;;;;;;21.21;61.37;98791.16;1775030;79;21007;-77
2021/05/19 11:39:56;;;;;;;3.12;2.83;;;;;;;21.14;62.36;98795.53;1771896;79;21022;-77
2021/05/19 11:42:29;;;;;;;5.15;2.80;;;;;;;21.06;61.78;98783.72;1769577;79;21973;-77
2021/05/19 11:45:00;;;;;;;3.60;3.05;;;;;;;20.98;62.27;98789.09;1782442;79;20932;-78
2021/05/19 11:47:38;;;;;;;3.08;2.80;;;;;;;20.92;61.74;98781.88;1782541;79;21601;-84
2021/05/19 11:50:25;;;;;;;4.75;3.42;;;;;;;20.87;61.37;98782.43;1770875;79;20983;-75
2021/05/19 11:53:13;;;;;;;4.45;2.85;;;;;;;20.88;61.36;98777.95;1786960;79;21135;-80
2021/05/19 11:55:50;;;;;;;3.25;2.85;;;;;;;20.92;59.94;98772.63;1783376;79;20984;-78
2021/05/19 11:58:22;;;;;;;3.98;2.67;;;;;;;21.02;59.22;98778.97;1783004;79;21034;-72
2021/05/19 12:01:12;;;;;;;3.60;2.42;;;;;;;21.12;58.51;98777.69;1785547;79;21011;-78
2021/05/19 12:03:36;;;;;;;3.98;2.47;;;;;;;21.22;56.01;98770.30;1780818;79;21042;-71
2021/05/19 12:06:11;;;;;;;5.67;2.25;;;;;;;21.35;55.49;98764.85;1782105;79;21095;-78
2021/05/19 12:08:48;;;;;;;4.20;1.90;;;;;;;21.46;54.74;98763.88;1780854;79;21038;-73
2021/05/19 12:11:19;;;;;;;3.05;2.30;;;;;;;21.59;54.00;98769.83;1778383;79;20929;-69
2021/05/19 12:14:04;;;;;;;6.22;3.05;;;;;;;21.71;53.93;98762.19;1772468;79;20920;-83
2021/05/19 12:16:41;;;;;;;4.28;3.65;;;;;;;21.85;53.24;98758.67;1722641;81;21532;-73
2021/05/19 12:19:26;;;;;;;4.92;2.50;;;;;;;21.92;53.04;98757.73;1726514;82;21035;-71
2021/05/19 12:22:14;;;;;;;3.20;2.50;;;;;;;21.92;52.99;98767.52;1737853;82;21480;-81
2021/05/19 12:24:41;;;;;;;2.58;2.35;;;;;;;21.81;51.54;98764.85;1777179;79;20960;-73
2021/05/19 12:27:10;;;;;;;3.75;2.50;;;;;;;21.68;52.08;98772.66;1783215;79;20953;-72
2021/05/19 12:29:50;;;;;;;3.25;2.12;;;;;;;21.56;53.72;98766.23;1779978;79;21005;-71
2021/05/19 12:32:23;;;;;;;2.30;2.08;;;;;;;21.51;54.22;98759.34;1782582;79;21103;-81
2021/05/19 12:35:08;;;;;;;3.67;2.20;;;;;;;21.51;52.40;98761.99;1791859;79;20985;-83
2021/05/19 12:37:51;;;;;;;;;;;;;;;21.48;50.80;98754.42;1784906;79;20939;-82
2021/05/19 12:40:22;;;;;;;2.75;2.40;;;;;;;21.44;52.31;98762.41;1780654;79;20163;-72
2021/05/19 12:42:53;;;;;;;6.87;2.98;;;;;;;21.34;54.62;98761.38;1777135;79;21024;-72
2021/05/19 12:45:34;;;;;;;4.90;2.92;;;;;;;21.15;55.49;98771.21;1772547;79;21064;-72
2021/05/19 12:48:14;;;;;;;4.15;3.05;;;;;;;20.94;56.39;98770.62;1784785;79;21621;-80
2021/05/19 12:50:46;;;;;;;4.37;3.80;;;;;;;20.84;56.44;98769.56;1786315;79;20924;-80
2021/05/19 12:53:42;;;;;;;4.40;3.00;;;;;;;20.74;56.76;98767.70;1782039;79;21011;-72
2021/05/19 12:56:19;;;;;;;3.20;2.95;;;;;;;20.66;57.82;98771.76;1738801;77;21168;-72
2021/05/19 12:59:08;;;;;;;4.40;3.70;;;;;;;20.66;58.16;98774.41;1768512;78;21017;-73
2021/05/19 13:01:49;;;;;;;3.65;3.25;;;;;;;20.73;57.89;98774.50;1789719;79;21026;-76
2021/05/19 13:04:17;;;;;;;3.95;3.45;;;;;;;20.73;57.89;98774.50;1762186;79;20941;-64
2021/05/19 13:06:51;;;;;;;5.55;3.65;;;;;;;20.75;58.62;98778.61;1797173;79;21567;-66
2021/05/19 13:09:22;;;;;;;3.52;3.22;;;;;;;20.78;58.73;98787.52;1768718;79;21533;-69
2021/05/19 13:12:05;;;;;;;3.27;2.95;;;;;;;20.85;58.44;98773.03;1768607;79;21160;-75
2021/05/19 13:14:45;;;;;;;4.95;4.37;;;;;;;20.94;53.72;98764.82;1766370;80;20975;-74
2021/05/19 13:20:11;;;;;;;4.47;4.08;;;;;;;21.08;52.49;98769.80;1719534;82;21056;-81
2021/05/19 13:22:37;;;;;;;6.75;4.97;;;;;;;21.09;54.17;98768.80;1721576;82;20973;-70
2021/05/19 13:25:06;;;;;;;4.53;4.17;;;;;;;21.17;53.57;98764.73;1732789;82;21172;-70
2021/05/19 13:27:33;;;;;;;4.50;3.67;;;;;;;21.22;52.58;98759.70;1761123;80;20953;-71
2021/05/19 13:30:06;;;;;;;4.65;3.35;;;;;;;21.16;52.90;98755.14;1783393;78;20960;-69
2021/05/19 13:38:05;;;;;;;;;;;;;;;21.02;53.74;98763.91;1794433;76;21109;-76
2021/05/19 13:43:50;;;;;;;4.83;3.95;;;;;;;21.13;54.61;98759.48;1775872;77;21589;-74
2021/05/19 13:46:20;;;;;;;4.22;3.83;;;;;;;21.23;53.60;98745.96;1778435;80;21011;-73
2021/05/19 13:48:49;;;;;;;8.23;4.12;;;;;;;21.36;53.52;98750.60;1778441;80;20995;-78
